createdAt,value
2016-02-10T00:00:04.978Z,66.27
2016-02-10T00:01:04.964Z,65.89
2016-02-10T00:02:04.983Z,66.27
2016-02-10T00:03:04.970Z,65.99
2016-02-10T00:04:04.972Z,66.17
2016-02-10T00:05:04.975Z,66.17
2016-02-10T00:06:04.964Z,66.08
2016-02-10T00:07:04.966Z,65.8
2016-02-10T00:08:04.972Z,65.99
2016-02-10T00:09:04.989Z,65.8
2016-02-10T00:10:04.960Z,65.6
2016-02-10T00:11:04.964Z,65.22
2016-02-10T00:12:04.967Z,66.17
2016-02-10T00:13:04.969Z,66.08
2016-02-10T00:14:04.988Z,65.8
2016-02-10T00:15:04.975Z,65.03
2016-02-10T00:16:04.978Z,65.41
2016-02-10T00:17:04.955Z,65.89
2016-02-10T00:18:04.973Z,66.46
2016-02-10T00:19:04.961Z,67.13
2016-02-10T00:20:04.994Z,67.32
2016-02-10T00:21:04.966Z,67.41
2016-02-10T00:22:04.969Z,67.32
2016-02-10T00:23:05.002Z,67.69
2016-02-10T00:24:04.974Z,67.13
2016-02-10T00:25:04.965Z,67.6
2016-02-10T00:26:04.951Z,67.66
2016-02-10T00:27:04.971Z,67.09
2016-02-10T00:28:04.973Z,67
2016-02-10T00:29:04.959Z,66.71
2016-02-10T00:30:04.962Z,65.67
2016-02-10T00:31:04.965Z,66.05
2016-02-10T00:32:04.952Z,65.57
2016-02-10T00:33:04.957Z,65.86
2016-02-10T00:34:04.959Z,64.9
2016-02-10T00:35:04.962Z,65
2016-02-10T00:36:04.964Z,64.9
2016-02-10T00:37:04.967Z,64.34
2016-02-10T00:38:04.954Z,64.34
2016-02-10T00:39:04.956Z,64.24
2016-02-10T00:40:04.946Z,64.14
2016-02-10T00:41:04.965Z,63.95
2016-02-10T00:42:04.951Z,64.24
2016-02-10T00:43:04.955Z,64.14
2016-02-10T00:44:04.957Z,63.86
2016-02-10T00:45:04.944Z,64.05
2016-02-10T00:46:04.948Z,64.05
2016-02-10T00:47:04.950Z,64.05
2016-02-10T00:48:04.953Z,63.76
2016-02-10T00:49:04.940Z,62.72
2016-02-10T00:50:04.942Z,62.53
2016-02-10T00:51:04.945Z,63.1
2016-02-10T00:52:04.932Z,62.62
2016-02-10T00:53:04.950Z,63.17
2016-02-10T00:54:04.936Z,62.69
2016-02-10T00:55:04.940Z,63.39
2016-02-10T00:56:04.958Z,63.17
2016-02-10T00:57:04.930Z,63.17
2016-02-10T00:58:04.933Z,63.2
2016-02-10T00:59:04.935Z,62.88
2016-02-10T01:00:04.938Z,62.69
2016-02-10T01:01:04.925Z,62.12
2016-02-10T01:02:04.927Z,62.12
2016-02-10T01:03:04.930Z,61.93
2016-02-10T01:04:04.933Z,62.4
2016-02-10T01:05:04.920Z,62.5
2016-02-10T01:06:04.922Z,62.21
2016-02-10T01:07:04.940Z,62.31
2016-02-10T01:08:04.913Z,62.59
2016-02-10T01:09:04.915Z,62.31
2016-02-10T01:10:04.919Z,62.78
2016-02-10T01:11:04.923Z,62.88
2016-02-10T01:12:04.909Z,63.07
2016-02-10T01:13:04.912Z,63.26
2016-02-10T01:14:04.900Z,62.78
2016-02-10T01:15:04.902Z,62.97
2016-02-10T01:16:04.920Z,62.88
2016-02-10T01:17:04.908Z,63.07
2016-02-10T01:18:04.894Z,63.26
2016-02-10T01:19:04.913Z,63.73
2016-02-10T01:20:04.900Z,63.83
2016-02-10T01:21:04.902Z,63.73
2016-02-10T01:22:04.906Z,64.02
2016-02-10T01:23:04.892Z,63.45
2016-02-10T01:24:04.894Z,63.92
2016-02-10T01:25:04.913Z,63.92
2016-02-10T01:26:04.888Z,64.21
2016-02-10T01:27:04.875Z,63.45
2016-02-10T01:28:04.893Z,63.17
2016-02-10T01:29:04.880Z,61.83
2016-02-10T01:30:04.899Z,62.02
2016-02-10T01:31:04.869Z,61.93
2016-02-10T01:32:04.888Z,61.74
2016-02-10T01:33:04.875Z,61.45
2016-02-10T01:34:04.878Z,61.93
2016-02-10T01:35:04.898Z,62.12
2016-02-10T01:36:04.884Z,61.65
2016-02-10T01:37:04.872Z,62.21
2016-02-10T01:38:04.874Z,61.45
2016-02-10T01:39:04.861Z,61.55
2016-02-10T01:40:04.863Z,61.93
2016-02-10T01:41:04.864Z,61.93
2016-02-10T01:42:04.867Z,62.02
2016-02-10T01:43:04.854Z,62.4
2016-02-10T01:44:04.874Z,62.5
2016-02-10T01:45:04.860Z,62.4
2016-02-10T01:46:04.862Z,62.78
2016-02-10T01:47:04.851Z,63.17
2016-02-10T01:48:04.853Z,62.4
2016-02-10T01:49:04.855Z,62.78
2016-02-10T01:50:04.843Z,62.88
2016-02-10T01:51:04.846Z,63.35
2016-02-10T01:52:04.865Z,63.17
2016-02-10T01:53:04.837Z,63.73
2016-02-10T01:54:04.839Z,61.83
2016-02-10T01:55:04.685Z,62.18
2016-02-10T01:56:04.859Z,61.99
2016-02-10T01:57:04.831Z,61.61
2016-02-10T01:58:04.817Z,62.08
2016-02-10T01:59:04.822Z,61.9
2016-02-10T02:00:04.840Z,61.42
2016-02-10T02:01:04.827Z,61.42
2016-02-10T02:02:04.815Z,61.33
2016-02-10T02:03:04.817Z,60.38
2016-02-10T02:04:04.820Z,60
2016-02-10T02:05:04.823Z,59.71
2016-02-10T02:06:04.809Z,59.91
2016-02-10T02:07:04.812Z,60.1
2016-02-10T02:08:04.817Z,60.95
2016-02-10T02:09:04.804Z,61.23
2016-02-10T02:10:04.807Z,60.1
2016-02-10T02:11:04.794Z,61.04
2016-02-10T02:12:04.814Z,60
2016-02-10T02:13:04.816Z,60.28
2016-02-10T02:14:04.804Z,60.28
2016-02-10T02:15:04.807Z,60.1
2016-02-10T02:16:04.793Z,59.81
2016-02-10T02:17:04.812Z,60.28
2016-02-10T02:18:04.799Z,60.28
2016-02-10T02:19:04.785Z,59.81
2016-02-10T02:20:04.788Z,59.71
2016-02-10T02:21:04.791Z,60.28
2016-02-10T02:22:04.778Z,60.85
2016-02-10T02:23:04.781Z,60.38
2016-02-10T02:24:04.799Z,60.28
2016-02-10T02:25:04.770Z,60.95
2016-02-10T02:26:04.773Z,60.76
2016-02-10T02:27:04.762Z,61.14
2016-02-10T02:28:04.764Z,61.52
2016-02-10T02:29:04.767Z,61.42
2016-02-10T02:30:04.754Z,61.14
2016-02-10T02:31:04.773Z,61.14
2016-02-10T02:32:04.760Z,61.04
2016-02-10T02:33:04.762Z,61.33
2016-02-10T02:34:04.765Z,61.61
2016-02-10T02:35:04.751Z,61.52
2016-02-10T02:36:04.754Z,61.23
2016-02-10T02:37:04.756Z,61.33
2016-02-10T02:38:04.745Z,61.33
2016-02-10T02:39:04.747Z,61.8
2016-02-10T02:40:04.750Z,61.04
2016-02-10T02:41:04.737Z,61.61
2016-02-10T02:42:04.739Z,61.58
2016-02-10T02:43:04.728Z,61.71
2016-02-10T02:44:04.732Z,61.3
2016-02-10T02:45:04.719Z,60.76
2016-02-10T02:46:04.722Z,60.82
2016-02-10T02:47:04.725Z,61.01
2016-02-10T02:48:04.727Z,61.49
2016-02-10T02:49:04.714Z,60.82
2016-02-10T02:50:04.717Z,61.49
2016-02-10T02:51:04.719Z,61.39
2016-02-10T02:52:04.708Z,61.3
2016-02-10T02:53:04.692Z,61.42
2016-02-10T02:54:04.700Z,61.77
2016-02-10T02:55:04.676Z,61.58
2016-02-10T02:56:04.667Z,61.68
2016-02-10T02:57:04.643Z,61.49
2016-02-10T02:58:04.636Z,62.05
2016-02-10T02:59:04.619Z,61.49
2016-02-10T03:00:04.619Z,62.05
2016-02-10T03:01:04.618Z,61.87
2016-02-10T03:02:04.601Z,62.05
2016-02-10T03:03:04.599Z,61.49
2016-02-10T03:04:04.601Z,61.11
2016-02-10T03:05:04.585Z,61.49
2016-02-10T03:06:04.587Z,61.11
2016-02-10T03:07:04.588Z,61.01
2016-02-10T03:08:04.589Z,61.11
2016-02-10T03:09:04.578Z,61.11
2016-02-10T03:10:04.580Z,61.11
2016-02-10T03:11:04.566Z,60.92
2016-02-10T03:12:04.569Z,60.16
2016-02-10T03:13:04.555Z,61.11
2016-02-10T03:14:04.564Z,60.53
2016-02-10T03:15:04.552Z,60.44
2016-02-10T03:16:04.554Z,61.11
2016-02-10T03:17:04.558Z,60.92
2016-02-10T03:18:04.544Z,61.3
2016-02-10T03:19:04.546Z,61.39
2016-02-10T03:20:04.534Z,62.05
2016-02-10T03:21:04.539Z,60.73
2016-02-10T03:22:04.526Z,60.92
2016-02-10T03:23:04.529Z,61.11
2016-02-10T03:24:04.532Z,60.82
2016-02-10T03:25:04.534Z,61.39
2016-02-10T03:26:04.521Z,61.2
2016-02-10T03:27:04.524Z,61.01
2016-02-10T03:28:04.511Z,61.11
2016-02-10T03:29:04.513Z,61.39
2016-02-10T03:30:04.501Z,61.39
2016-02-10T03:31:04.518Z,61.49
2016-02-10T03:32:04.507Z,61.3
2016-02-10T03:33:04.524Z,61.2
2016-02-10T03:34:04.511Z,61.2
2016-02-10T03:35:04.499Z,61.49
2016-02-10T03:36:04.501Z,60.44
2016-02-10T03:37:04.504Z,59.68
2016-02-10T03:38:04.491Z,61.01
2016-02-10T03:39:04.493Z,61.11
2016-02-10T03:40:04.496Z,61.2
2016-02-10T03:41:04.484Z,61.2
2016-02-10T03:42:04.470Z,60.73
2016-02-10T03:43:04.473Z,60.25
2016-02-10T03:44:04.498Z,60.16
2016-02-10T03:45:04.468Z,59.97
2016-02-10T03:46:04.456Z,60.06
2016-02-10T03:47:04.474Z,60.16
2016-02-10T03:48:04.461Z,60.44
2016-02-10T03:49:04.449Z,60.73
2016-02-10T03:50:04.452Z,60.16
2016-02-10T03:51:04.455Z,60.06
2016-02-10T03:52:04.458Z,59.97
2016-02-10T03:53:04.446Z,60.06
2016-02-10T03:54:04.432Z,59.97
2016-02-10T03:55:04.435Z,59.97
2016-02-10T03:56:04.438Z,60.82
2016-02-10T03:57:04.440Z,60.79
2016-02-10T03:58:04.427Z,61.01
2016-02-10T03:59:04.415Z,61.2
2016-02-10T04:00:04.418Z,61.08
2016-02-10T04:01:04.420Z,60.98
2016-02-10T04:02:04.407Z,61.3
2016-02-10T04:03:04.410Z,61.27
2016-02-10T04:04:04.334Z,61.96
2016-02-10T04:05:04.399Z,61.39
2016-02-10T04:06:04.401Z,61.65
2016-02-10T04:07:04.405Z,61.49
2016-02-10T04:08:04.392Z,61.65
2016-02-10T04:09:04.395Z,61.27
2016-02-10T04:10:04.399Z,61.65
2016-02-10T04:11:04.385Z,60.98
2016-02-10T04:12:04.388Z,61.36
2016-02-10T04:13:04.390Z,61.36
2016-02-10T04:14:04.378Z,61.36
2016-02-10T04:15:04.381Z,61.27
2016-02-10T04:16:04.369Z,61.27
2016-02-10T04:17:04.372Z,61.08
2016-02-10T04:18:04.359Z,61.17
2016-02-10T04:19:04.362Z,60.98
2016-02-10T04:20:04.349Z,61.17
2016-02-10T04:21:04.352Z,60.6
2016-02-10T04:22:03.589Z,60.03
2016-02-10T04:23:04.358Z,60.89
2016-02-10T04:24:04.360Z,60.22
2016-02-10T04:25:04.347Z,60.5
2016-02-10T04:26:04.339Z,60.89
2016-02-10T04:27:04.341Z,61.36
2016-02-10T04:28:04.329Z,61.17
2016-02-10T04:29:04.332Z,60.79
2016-02-10T04:30:04.334Z,60.79
2016-02-10T04:31:04.321Z,60.5
2016-02-10T04:32:04.308Z,60.89
2016-02-10T04:33:04.310Z,60.79
2016-02-10T04:34:04.329Z,60.89
2016-02-10T04:35:04.300Z,59.84
2016-02-10T04:36:04.304Z,59.84
2016-02-10T04:37:04.290Z,60.41
2016-02-10T04:38:04.293Z,60.22
2016-02-10T04:39:04.296Z,60.6
2016-02-10T04:40:04.298Z,60.98
2016-02-10T04:41:04.285Z,60.98
2016-02-10T04:42:04.273Z,61.08
2016-02-10T04:43:04.291Z,61.08
2016-02-10T04:44:04.279Z,61.36
2016-02-10T04:45:04.265Z,61.36
2016-02-10T04:46:04.257Z,61.55
2016-02-10T04:47:04.260Z,61.55
2016-02-10T04:48:04.263Z,61.46
2016-02-10T04:49:04.249Z,61.36
2016-02-10T04:50:04.252Z,61.55
2016-02-10T04:51:04.255Z,61.74
2016-02-10T04:52:04.241Z,61.36
2016-02-10T04:53:04.244Z,61.46
2016-02-10T04:54:04.233Z,61.93
2016-02-10T04:55:04.235Z,61.93
2016-02-10T04:56:04.239Z,62.02
2016-02-10T04:57:04.225Z,61.83
2016-02-10T04:58:04.227Z,62.21
2016-02-10T04:59:04.230Z,62.12
2016-02-10T05:00:04.217Z,62.31
2016-02-10T05:01:04.236Z,62.88
2016-02-10T05:02:04.223Z,62.21
2016-02-10T05:03:04.195Z,62.21
2016-02-10T05:04:04.213Z,62.21
2016-02-10T05:05:04.201Z,62.59
2016-02-10T05:06:04.203Z,62.78
2016-02-10T05:07:04.189Z,62.69
2016-02-10T05:08:04.193Z,62.69
2016-02-10T05:09:04.180Z,62.88
2016-02-10T05:10:04.183Z,62.4
2016-02-10T05:11:04.173Z,62.4
2016-02-10T05:12:04.175Z,63.07
2016-02-10T05:13:04.178Z,62.97
2016-02-10T05:14:04.166Z,62.97
2016-02-10T05:15:04.168Z,63.73
2016-02-10T05:16:04.154Z,63.54
2016-02-10T05:17:04.158Z,62.88
2016-02-10T05:18:04.151Z,63.07
2016-02-10T05:19:04.154Z,63.26
2016-02-10T05:20:04.157Z,63.54
2016-02-10T05:21:04.143Z,63.54
2016-02-10T05:22:04.147Z,63.45
2016-02-10T05:23:04.134Z,63.64
2016-02-10T05:24:04.136Z,63.35
2016-02-10T05:25:04.139Z,63.35
2016-02-10T05:26:04.142Z,63.45
2016-02-10T05:27:04.129Z,64.01
2016-02-10T05:28:04.117Z,64.3
2016-02-10T05:29:04.151Z,63.64
2016-02-10T05:30:04.106Z,63.64
2016-02-10T05:31:04.110Z,64.11
2016-02-10T05:32:04.112Z,64.2
2016-02-10T05:33:04.098Z,64.08
2016-02-10T05:34:04.102Z,64.2
2016-02-10T05:35:04.089Z,63.89
2016-02-10T05:36:04.107Z,64.17
2016-02-10T05:37:04.096Z,64.17
2016-02-10T05:38:04.082Z,64.11
2016-02-10T05:39:04.086Z,63.92
2016-02-10T05:40:04.073Z,64.2
2016-02-10T05:41:04.075Z,64.3
2016-02-10T05:42:04.077Z,63.82
2016-02-10T05:43:04.066Z,64.11
2016-02-10T05:44:04.068Z,64.17
2016-02-10T05:45:04.070Z,63.7
2016-02-10T05:46:04.058Z,64.01
2016-02-10T05:47:04.060Z,64.2
2016-02-10T05:48:04.049Z,63.92
2016-02-10T05:49:04.037Z,64.01
2016-02-10T05:50:04.039Z,63.82
2016-02-10T05:51:04.026Z,64.11
2016-02-10T05:52:04.028Z,64.01
2016-02-10T05:53:04.047Z,63.92
2016-02-10T05:54:04.035Z,64.27
2016-02-10T05:55:04.022Z,64.17
2016-02-10T05:56:04.040Z,64.17
2016-02-10T05:57:04.011Z,64.08
2016-02-10T05:58:04.014Z,64.36
2016-02-10T05:59:04.017Z,64.74
2016-02-10T06:00:04.003Z,64.08
2016-02-10T06:01:04.006Z,64.74
2016-02-10T06:02:03.993Z,64.74
2016-02-10T06:03:03.997Z,64.74
2016-02-10T06:04:03.984Z,64.84
2016-02-10T06:05:03.987Z,64.74
2016-02-10T06:06:03.989Z,64.08
2016-02-10T06:07:03.992Z,64.36
2016-02-10T06:08:03.979Z,64.84
2016-02-10T06:09:03.966Z,64.74
2016-02-10T06:10:03.969Z,64.74
2016-02-10T06:11:03.972Z,64.55
2016-02-10T06:12:03.961Z,64.17
2016-02-10T06:13:03.964Z,64.08
2016-02-10T06:14:03.951Z,63.79
2016-02-10T06:15:03.954Z,64.08
2016-02-10T06:16:03.943Z,64.27
2016-02-10T06:17:03.945Z,63.98
2016-02-10T06:18:03.948Z,64.46
2016-02-10T06:19:03.934Z,64.17
2016-02-10T06:20:03.938Z,64.17
2016-02-10T06:21:03.926Z,64.55
2016-02-10T06:22:03.929Z,64.08
2016-02-10T06:23:03.931Z,63.98
2016-02-10T06:24:03.917Z,64.55
2016-02-10T06:25:03.921Z,64.46
2016-02-10T06:26:03.923Z,64.27
2016-02-10T06:27:03.910Z,64.27
2016-02-10T06:28:03.898Z,64.84
2016-02-10T06:29:03.901Z,64.65
2016-02-10T06:30:03.904Z,64.84
2016-02-10T06:31:03.906Z,64.84
2016-02-10T06:32:03.893Z,64.65
2016-02-10T06:33:03.880Z,64.65
2016-02-10T06:34:03.133Z,64.84
2016-02-10T06:35:03.885Z,64.36
2016-02-10T06:36:03.873Z,64.46
2016-02-10T06:37:03.876Z,64.27
2016-02-10T06:38:03.878Z,64.46
2016-02-10T06:39:03.865Z,64.27
2016-02-10T06:40:03.853Z,64.27
2016-02-10T06:41:03.105Z,64.17
2016-02-10T06:42:03.858Z,64.55
2016-02-10T06:43:03.845Z,64.55
2016-02-10T06:44:03.847Z,64.46
2016-02-10T06:45:03.851Z,64.46
2016-02-10T06:46:03.837Z,64.17
2016-02-10T06:47:03.859Z,64.27
2016-02-10T06:48:03.830Z,64.55
2016-02-10T06:49:03.817Z,64.08
2016-02-10T06:50:03.820Z,64.55
2016-02-10T06:51:03.823Z,64.84
2016-02-10T06:52:03.825Z,64.74
2016-02-10T06:53:03.811Z,64.74
2016-02-10T06:54:03.815Z,65.12
2016-02-10T06:55:03.818Z,64.93
2016-02-10T06:56:03.807Z,64.74
2016-02-10T06:57:03.809Z,65.31
2016-02-10T06:58:03.796Z,64.74
2016-02-10T06:59:03.799Z,65.22
2016-02-10T07:00:03.786Z,64.55
2016-02-10T07:01:03.788Z,65.12
2016-02-10T07:02:03.791Z,64.55
2016-02-10T07:03:03.778Z,65.31
2016-02-10T07:04:03.016Z,65.12
2016-02-10T07:05:03.770Z,64.84
2016-02-10T07:06:03.757Z,64.84
2016-02-10T07:07:03.776Z,65.03
2016-02-10T07:08:03.763Z,65.22
2016-02-10T07:09:03.750Z,64.74
2016-02-10T07:10:03.753Z,65.03
2016-02-10T07:11:03.756Z,65.31
2016-02-10T07:12:03.741Z,65.41
2016-02-10T07:13:03.747Z,65.03
2016-02-10T07:14:03.734Z,65.5
2016-02-10T07:15:03.752Z,65.31
2016-02-10T07:16:03.724Z,65.78
2016-02-10T07:17:03.726Z,65.41
2016-02-10T07:18:03.720Z,65.41
2016-02-10T07:19:03.723Z,65.78
2016-02-10T07:20:03.711Z,65.69
2016-02-10T07:21:03.713Z,66.07
2016-02-10T07:22:03.700Z,65.97
2016-02-10T07:23:03.718Z,65.88
2016-02-10T07:24:03.705Z,65.59
2016-02-10T07:25:03.692Z,66.07
2016-02-10T07:26:03.694Z,65.97
2016-02-10T07:27:03.697Z,66.16
2016-02-10T07:28:03.685Z,66.16
2016-02-10T07:29:03.687Z,66.16
2016-02-10T07:30:03.675Z,66.26
2016-02-10T07:31:03.694Z,66.07
2016-02-10T07:32:03.665Z,65.59
2016-02-10T07:33:03.667Z,65.97
2016-02-10T07:34:03.670Z,66.07
2016-02-10T07:35:03.673Z,66.74
2016-02-10T07:36:03.660Z,66.26
2016-02-10T07:37:03.647Z,66.54
2016-02-10T07:38:03.652Z,66.35
2016-02-10T07:39:03.654Z,66.35
2016-02-10T07:40:03.641Z,66.35
2016-02-10T07:41:03.644Z,66.45
2016-02-10T07:42:03.646Z,66.64
2016-02-10T07:43:03.634Z,66.67
2016-02-10T07:44:03.621Z,66.64
2016-02-10T07:45:03.624Z,66.39
2016-02-10T07:46:03.627Z,66.29
2016-02-10T07:47:03.615Z,66.58
2016-02-10T07:48:03.649Z,66.39
2016-02-10T07:49:03.620Z,66.67
2016-02-10T07:50:03.608Z,66.64
2016-02-10T07:51:03.735Z,66.01
2016-02-10T07:52:03.848Z,66.2
2016-02-10T07:53:03.757Z,66.01
2016-02-10T07:54:03.838Z,66.29
2016-02-10T07:55:03.841Z,66.2
2016-02-10T07:56:04.311Z,66.29
2016-02-10T07:57:03.861Z,66.48
2016-02-10T07:58:03.926Z,66.2
2016-02-10T07:59:04.179Z,66.01
2016-02-10T08:00:03.650Z,66.1
2016-02-10T08:01:03.841Z,66.2
2016-02-10T08:02:03.656Z,65.72
2016-02-10T08:03:03.957Z,65.82
2016-02-10T08:04:03.695Z,66.1
2016-02-10T08:05:03.806Z,65.82
2016-02-10T08:06:03.624Z,65.91
2016-02-10T08:07:03.673Z,65.91
2016-02-10T08:08:03.722Z,66.01
2016-02-10T08:09:03.788Z,65.82
2016-02-10T08:10:03.822Z,65.34
2016-02-10T08:11:03.622Z,65.16
2016-02-10T08:12:03.702Z,65.25
2016-02-10T08:13:03.752Z,65.06
2016-02-10T08:14:03.804Z,65.06
2016-02-10T08:15:03.776Z,64.78
2016-02-10T08:16:03.607Z,64.97
2016-02-10T08:17:03.625Z,65.06
2016-02-10T08:18:03.627Z,64.78
2016-02-10T08:19:03.760Z,64.78
2016-02-10T08:20:03.623Z,64.01
2016-02-10T08:21:03.765Z,64.59
2016-02-10T08:22:03.753Z,64.4
2016-02-10T08:23:03.757Z,63.92
2016-02-10T08:24:03.712Z,63.86
2016-02-10T08:25:03.762Z,64.11
2016-02-10T08:26:03.577Z,63.82
2016-02-10T08:27:03.688Z,63.86
2016-02-10T08:28:03.645Z,63.76
2016-02-10T08:29:03.695Z,63.35
2016-02-10T08:30:03.760Z,63.76
2016-02-10T08:31:03.561Z,63.64
2016-02-10T08:32:03.579Z,63.29
2016-02-10T08:33:03.644Z,63.48
2016-02-10T08:34:03.695Z,63.76
2016-02-10T08:35:03.775Z,63.67
2016-02-10T08:36:03.589Z,63.39
2016-02-10T08:37:03.640Z,63.39
2016-02-10T08:38:03.736Z,63.29
2016-02-10T08:39:03.646Z,62.82
2016-02-10T08:40:02.884Z,62.43
2016-02-10T08:41:03.526Z,62.43
2016-02-10T08:42:03.544Z,63.1
2016-02-10T08:43:03.594Z,63.01
2016-02-10T08:44:03.722Z,62.72
2016-02-10T08:45:02.866Z,62.43
2016-02-10T08:46:03.681Z,62.53
2016-02-10T08:47:03.574Z,61.96
2016-02-10T08:48:03.577Z,61.96
2016-02-10T08:49:03.674Z,61.87
2016-02-10T08:50:03.667Z,61.87
2016-02-10T08:51:03.639Z,62.15
2016-02-10T08:52:03.610Z,62.05
2016-02-10T08:53:03.566Z,62.05
2016-02-10T08:54:03.632Z,61.87
2016-02-10T08:55:03.681Z,61.96
2016-02-10T08:56:03.669Z,61.96
2016-02-10T08:57:03.625Z,61.87
2016-02-10T08:58:03.659Z,61.58
2016-02-10T08:59:03.521Z,61.3
2016-02-10T09:00:03.586Z,61.49
2016-02-10T09:01:03.792Z,61.58
2016-02-10T09:02:03.499Z,61.2
2016-02-10T09:03:03.689Z,61.58
2016-02-10T09:04:03.660Z,61.49
2016-02-10T09:05:03.491Z,61.58
2016-02-10T09:06:03.588Z,61.3
2016-02-10T09:07:03.434Z,61.2
2016-02-10T09:08:03.671Z,60.76
2016-02-10T09:09:03.627Z,60.95
2016-02-10T09:10:03.598Z,61.04
2016-02-10T09:11:03.554Z,61.52
2016-02-10T09:12:03.463Z,60.57
2016-02-10T09:13:03.434Z,60.95
2016-02-10T09:14:03.516Z,61.04
2016-02-10T09:15:03.551Z,61.23
2016-02-10T09:16:03.584Z,61.42
2016-02-10T09:17:03.540Z,61.14
2016-02-10T09:18:03.402Z,61.23
2016-02-10T09:19:03.530Z,61.33
2016-02-10T09:20:03.658Z,60.85
2016-02-10T09:21:03.555Z,59.91
2016-02-10T09:22:03.621Z,60
2016-02-10T09:23:03.483Z,59.91
2016-02-10T09:24:03.547Z,60.1
2016-02-10T09:25:03.597Z,59.81
2016-02-10T09:26:03.585Z,60.1
2016-02-10T09:27:03.572Z,60.1
2016-02-10T09:28:03.575Z,60.1
2016-02-10T09:29:03.561Z,60.19
2016-02-10T09:30:03.563Z,59.62
2016-02-10T09:31:03.489Z,60.28
2016-02-10T09:32:03.633Z,60
2016-02-10T09:33:03.605Z,59.91
2016-02-10T09:34:03.545Z,60.28
2016-02-10T09:35:03.610Z,59.71
2016-02-10T09:36:03.488Z,59.52
2016-02-10T09:37:03.678Z,59.14
2016-02-10T09:38:03.540Z,60.1
2016-02-10T09:39:22.826Z,59.27
2016-02-10T09:40:03.591Z,59.46
2016-02-10T09:41:04.049Z,59.46
2016-02-10T09:42:03.364Z,59.36
2016-02-10T09:43:03.585Z,58.7
2016-02-10T09:44:03.619Z,58.89
2016-02-10T09:45:03.638Z,59.08
2016-02-10T09:46:03.547Z,58.89
2016-02-10T09:47:03.455Z,58.98
2016-02-10T09:48:03.568Z,59.08
2016-02-10T09:49:03.571Z,58.98
2016-02-10T09:50:03.513Z,58.13
2016-02-10T09:51:03.625Z,57.75
2016-02-10T09:52:03.424Z,57.75
2016-02-10T09:53:03.506Z,57.37
2016-02-10T09:54:03.620Z,58.32
2016-02-10T09:55:03.544Z,57.94
2016-02-10T09:56:04.093Z,57.18
2016-02-10T09:57:03.540Z,57.28
2016-02-10T09:58:03.549Z,57.46
2016-02-10T09:59:03.364Z,56.51
2016-02-10T10:00:03.477Z,57.09
2016-02-10T10:01:03.604Z,57.18
2016-02-10T10:02:03.950Z,56.99
2016-02-10T10:03:03.421Z,55.66
2016-02-10T10:04:03.518Z,56.23
2016-02-10T10:05:03.426Z,55.57
2016-02-10T10:06:03.572Z,55.09
2016-02-10T10:07:03.542Z,55.94
2016-02-10T10:08:03.577Z,56.42
2016-02-10T10:09:03.486Z,56.42
2016-02-10T10:10:03.535Z,55.85
2016-02-10T10:11:03.569Z,56.51
2016-02-10T10:12:03.463Z,55.76
2016-02-10T10:13:03.466Z,56.04
2016-02-10T10:15:03.393Z,55.85
2016-02-10T10:16:03.506Z,55.85
2016-02-10T10:17:03.588Z,55.85
2016-02-10T10:18:03.450Z,56.04
2016-02-10T10:19:03.562Z,56.04
2016-02-10T10:20:03.487Z,56.32
2016-02-10T10:21:03.630Z,55.94
2016-02-10T10:22:03.507Z,55.88
2016-02-10T10:23:03.450Z,55.76
2016-02-10T10:24:03.515Z,55.78
2016-02-10T10:25:03.534Z,54.93
2016-02-10T10:26:03.412Z,55.21
2016-02-10T10:27:03.570Z,55.02
2016-02-10T10:28:03.510Z,55.11
2016-02-10T10:29:03.419Z,55.4
2016-02-10T10:30:03.469Z,55.5
2016-02-10T10:31:03.456Z,55.3
2016-02-10T10:32:03.475Z,55.3
2016-02-10T10:33:03.523Z,54.93
2016-02-10T10:34:03.481Z,55.11
2016-02-10T10:35:03.468Z,54.74
2016-02-10T10:36:03.580Z,55.4
2016-02-10T10:37:03.551Z,54.55
2016-02-10T10:38:03.460Z,54.83
2016-02-10T10:39:03.557Z,54.74
2016-02-10T10:40:03.512Z,52.84
2016-02-10T10:41:03.359Z,53.69
2016-02-10T10:42:03.362Z,54.64
2016-02-10T10:43:03.349Z,54.45
2016-02-10T10:44:03.336Z,54.45
2016-02-10T10:45:03.355Z,52.84
2016-02-10T10:46:03.217Z,53.69
2016-02-10T10:47:03.360Z,53.5
2016-02-10T10:48:03.362Z,53.78
2016-02-10T10:49:03.334Z,53.78
2016-02-10T10:50:03.355Z,53.88
2016-02-10T10:51:03.341Z,53.41
2016-02-10T10:52:03.349Z,53.03
2016-02-10T10:53:03.385Z,53.41
2016-02-10T10:54:03.341Z,53.59
2016-02-10T10:55:03.344Z,53.69
2016-02-10T10:56:03.362Z,53.78
2016-02-10T10:57:03.365Z,53.5
2016-02-10T10:58:03.680Z,53.12
2016-02-10T10:59:03.886Z,53.03
2016-02-10T11:00:03.436Z,52.17
2016-02-10T11:01:03.423Z,52.84
2016-02-10T11:02:03.410Z,52.84
2016-02-10T11:03:03.397Z,52.93
2016-02-10T11:04:03.368Z,53.41
2016-02-10T11:05:03.418Z,52.26
2016-02-10T11:06:03.468Z,51.98
2016-02-10T11:07:03.408Z,52.36
2016-02-10T11:08:03.427Z,50.84
2016-02-10T11:09:03.398Z,51.31
2016-02-10T11:10:03.463Z,51.22
2016-02-10T11:11:03.481Z,51.12
2016-02-10T11:12:03.421Z,50.93
2016-02-10T11:13:03.503Z,51.12
2016-02-10T11:14:03.520Z,50.93
2016-02-10T11:15:03.461Z,49.98
2016-02-10T11:16:03.481Z,50.46
2016-02-10T11:17:03.359Z,50.74
2016-02-10T11:18:03.487Z,51.22
2016-02-10T11:19:03.505Z,51.6
2016-02-10T11:20:03.385Z,52.08
2016-02-10T11:21:03.402Z,51.7
2016-02-10T11:22:03.499Z,51.7
2016-02-10T11:23:03.549Z,51.79
2016-02-10T11:24:03.412Z,51.31
2016-02-10T11:25:03.462Z,50.84
2016-02-10T11:26:03.403Z,50.96
2016-02-10T11:27:03.405Z,50.84
2016-02-10T11:28:03.345Z,51.25
2016-02-10T11:29:03.692Z,51.15
2016-02-10T11:30:03.444Z,51.12
2016-02-10T11:31:03.478Z,50.87
2016-02-10T11:32:03.389Z,50.77
2016-02-10T11:33:03.485Z,49.44
2016-02-10T11:34:03.487Z,49.91
2016-02-10T11:35:03.383Z,50.48
2016-02-10T11:36:03.370Z,50.1
2016-02-10T11:37:03.372Z,50.1
2016-02-10T11:38:03.860Z,50.77
2016-02-10T11:39:05.050Z,50.01
2016-02-10T11:40:03.365Z,50.1
2016-02-10T11:41:03.618Z,49.63
2016-02-10T11:42:03.496Z,50.1
2016-02-10T11:43:03.388Z,50.58
2016-02-10T11:44:03.469Z,49.73
2016-02-10T11:45:03.472Z,50.2
2016-02-10T11:46:03.538Z,49.63
2016-02-10T11:47:03.821Z,49.06
2016-02-10T11:48:03.496Z,48.96
2016-02-10T11:49:03.561Z,49.35
2016-02-10T11:50:03.688Z,48.68
2016-02-10T11:51:03.398Z,48.11
2016-02-10T11:52:03.541Z,48.39
2016-02-10T11:53:03.482Z,48.87
2016-02-10T11:54:03.719Z,49.06
2016-02-10T11:55:03.613Z,49.91
2016-02-10T11:56:03.490Z,49.15
2016-02-10T11:57:03.571Z,48.77
2016-02-10T11:58:03.527Z,48.21
2016-02-10T11:59:03.462Z,48.3
2016-02-10T12:00:03.359Z,48.01
2016-02-10T12:01:03.474Z,47.82
2016-02-10T12:02:03.368Z,48.96
2016-02-10T12:03:03.512Z,48.3
2016-02-10T12:04:03.363Z,48.39
2016-02-10T12:05:03.423Z,48.37
2016-02-10T12:06:03.499Z,48.3
2016-02-10T12:07:03.622Z,48.49
2016-02-10T12:08:03.369Z,48.85
2016-02-10T12:09:03.416Z,48.94
2016-02-10T12:10:03.465Z,48.87
2016-02-10T12:11:03.402Z,49.25
2016-02-10T12:12:03.356Z,49.25
2016-02-10T12:13:03.404Z,49.04
2016-02-10T12:14:03.374Z,48.68
2016-02-10T12:15:03.283Z,48.87
2016-02-10T12:16:03.285Z,48.96
2016-02-10T12:17:03.300Z,48.77
2016-02-10T12:18:03.631Z,49.06
2016-02-10T12:19:03.711Z,49.25
2016-02-10T12:20:03.339Z,48.96
2016-02-10T12:21:03.388Z,49.35
2016-02-10T12:22:03.328Z,48.58
2016-02-10T12:23:03.398Z,48.11
2016-02-10T12:24:03.462Z,48.68
2016-02-10T12:25:03.340Z,48.11
2016-02-10T12:26:03.359Z,48.11
2016-02-10T12:27:03.392Z,47.54
2016-02-10T12:28:03.348Z,47.44
2016-02-10T12:29:03.492Z,48.11
2016-02-10T12:30:03.432Z,48.11
2016-02-10T12:31:03.450Z,48.39
2016-02-10T12:32:03.531Z,48.58
2016-02-10T12:33:03.377Z,48.49
2016-02-10T12:34:03.334Z,48.21
2016-02-10T12:35:03.462Z,48.87
2016-02-10T12:36:03.325Z,48.68
2016-02-10T12:37:03.623Z,48.58
2016-02-10T12:38:03.345Z,49.44
2016-02-10T12:39:03.301Z,49.25
2016-02-10T12:40:03.397Z,48.87
2016-02-10T12:41:03.369Z,49.06
2016-02-10T12:42:03.325Z,48.11
2016-02-10T12:43:03.436Z,49.06
2016-02-10T12:44:03.439Z,48.87
2016-02-10T12:45:03.349Z,49.35
2016-02-10T12:46:03.413Z,48.99
2016-02-10T12:47:03.525Z,49.08
2016-02-10T12:48:03.497Z,49.08
2016-02-10T12:49:03.312Z,48.23
2016-02-10T12:50:03.362Z,48.03
2016-02-10T12:51:03.390Z,47.56
2016-02-10T12:52:03.346Z,46.42
2016-02-10T12:53:03.317Z,46.99
2016-02-10T12:54:03.476Z,46.61
2016-02-10T12:55:03.291Z,46.8
2016-02-10T12:56:03.512Z,47.02